Time;durP1;ratioP1;P1;durP2;ratioP2;P2;SDS_P1;SDS_P2;PMS_P1;PMS_P2;Temp;Humidity;BMP_temperature;BMP_pressure;BME280_temperature;BME280_humidity;BME280_pressure;Samples;Min_cycle;Max_cycle;Signal;HPM_P1;HPM_P2
2022/07/23 00:00:48;;;;;;;3.50;0.10;;;14.80;99.90;;;;;;5114063;28;20024;-74
2022/07/23 00:03:13;;;;;;;0.73;0.10;;;14.70;99.90;;;;;;5116875;28;20366;-74
2022/07/23 00:05:39;;;;;;;1.70;0.32;;;14.70;99.90;;;;;;5116811;27;20020;-74
2022/07/23 00:08:06;;;;;;;1.00;0.10;;;14.70;99.90;;;;;;5116780;28;20058;-74
2022/07/23 00:10:33;;;;;;;2.38;0.10;;;14.60;99.90;;;;;;5116709;28;20023;-74
2022/07/23 00:12:58;;;;;;;0.45;0.20;;;14.60;99.90;;;;;;5115543;28;20463;-74
2022/07/23 00:15:24;;;;;;;0.40;0.10;;;14.60;99.90;;;;;;5117104;28;20051;-74
2022/07/23 00:17:50;;;;;;;0.75;0.10;;;14.50;99.90;;;;;;5116510;28;20019;-74
2022/07/23 00:20:15;;;;;;;0.50;0.05;;;14.50;99.90;;;;;;5115077;28;20023;-74
2022/07/23 00:22:52;;;;;;;0.15;0.10;;;14.50;99.90;;;;;;5116686;28;20031;-74
2022/07/23 00:25:17;;;;;;;1.05;0.00;;;14.50;99.90;;;;;;5116357;28;20027;-74
2022/07/23 00:27:43;;;;;;;0.45;0.10;;;14.40;99.90;;;;;;5116289;28;20031;-74
2022/07/23 00:30:10;;;;;;;1.52;0.30;;;14.40;99.90;;;;;;5115061;28;20016;-74
2022/07/23 00:32:57;;;;;;;5.22;0.10;;;14.40;99.90;;;;;;5116208;28;20038;-74
2022/07/23 00:35:25;;;;;;;2.90;0.20;;;14.30;99.90;;;;;;5116232;28;20020;-74
2022/07/23 00:37:50;;;;;;;0.63;0.30;;;14.30;99.90;;;;;;5116228;28;20091;-74
2022/07/23 00:40:16;;;;;;;0.95;0.30;;;14.20;99.90;;;;;;5116210;28;20066;-74
2022/07/23 00:42:43;;;;;;;3.60;0.47;;;14.20;99.90;;;;;;5116221;28;20106;-74
2022/07/23 00:45:09;;;;;;;0.40;0.00;;;14.10;99.90;;;;;;5114681;28;20019;-74
2022/07/23 00:47:35;;;;;;;0.55;0.17;;;14.10;99.90;;;;;;5114712;28;20421;-74
2022/07/23 00:50:02;;;;;;;0.75;0.20;;;14.10;99.90;;;;;;5115869;28;20053;-74
2022/07/23 00:52:28;;;;;;;2.15;0.32;;;14.10;99.90;;;;;;5115757;28;20024;-74
2022/07/23 00:54:54;;;;;;;1.85;0.38;;;14.00;99.90;;;;;;5115800;28;20027;-74
2022/07/23 00:57:19;;;;;;;2.55;0.10;;;14.00;99.90;;;;;;5114588;28;20016;-74
2022/07/23 00:59:45;;;;;;;1.83;0.22;;;13.90;99.90;;;;;;5115614;28;20027;-74
2022/07/23 01:02:10;;;;;;;2.13;0.00;;;13.80;99.90;;;;;;5116221;28;20110;-74
2022/07/23 01:04:36;;;;;;;2.05;0.55;;;13.90;99.90;;;;;;5115623;28;20508;-74
2022/07/23 01:07:02;;;;;;;1.27;0.25;;;13.80;99.90;;;;;;5115971;28;20036;-74
2022/07/23 01:09:28;;;;;;;4.20;0.17;;;13.80;99.90;;;;;;5114230;28;20067;-74
2022/07/23 01:11:56;;;;;;;3.38;0.40;;;13.80;99.90;;;;;;5113602;28;20024;-75
2022/07/23 01:14:22;;;;;;;;;;;13.80;99.90;;;;;;5115628;28;20433;-74
2022/07/23 01:16:49;;;;;;;0.52;0.10;;;13.70;99.90;;;;;;5115412;28;19904;-74
2022/07/23 01:19:16;;;;;;;0.73;0.13;;;13.70;99.90;;;;;;5115537;28;20076;-74
2022/07/23 01:21:47;;;;;;;1.35;0.10;;;13.70;99.90;;;;;;5115516;28;20065;-74
2022/07/23 01:24:13;;;;;;;3.30;0.30;;;13.70;99.90;;;;;;5115147;28;20078;-74
2022/07/23 01:26:41;;;;;;;3.85;0.30;;;13.70;99.90;;;;;;5115172;28;20051;-74
2022/07/23 01:29:07;;;;;;;1.85;0.25;;;13.70;99.90;;;;;;5113871;28;20020;-74
2022/07/23 01:31:32;;;;;;;4.15;0.13;;;13.70;99.90;;;;;;5114934;28;20495;-74
2022/07/23 01:33:58;;;;;;;0.98;0.40;;;13.60;99.90;;;;;;5115012;28;20032;-74
2022/07/23 01:36:24;;;;;;;0.73;0.15;;;13.60;99.90;;;;;;5113680;28;20024;-74
2022/07/23 01:38:50;;;;;;;0.50;0.10;;;13.60;99.90;;;;;;5114955;28;20039;-74
2022/07/23 01:41:16;;;;;;;0.60;0.22;;;13.50;99.90;;;;;;5114776;28;20046;-74
2022/07/23 01:43:42;;;;;;;2.83;0.52;;;13.50;99.90;;;;;;5114729;28;20020;-74
2022/07/23 01:46:08;;;;;;;2.50;0.40;;;13.50;99.90;;;;;;5115077;28;20029;-74
2022/07/23 01:48:33;;;;;;;2.58;0.63;;;13.50;99.90;;;;;;5113502;28;20069;-74
2022/07/23 01:50:59;;;;;;;7.90;0.80;;;13.50;99.90;;;;;;5114858;28;20023;-74
2022/07/23 01:53:24;;;;;;;1.30;0.22;;;13.50;99.90;;;;;;5114708;28;20012;-74
2022/07/23 01:55:50;;;;;;;3.40;0.20;;;13.40;99.90;;;;;;5114815;28;20096;-74
2022/07/23 01:58:16;;;;;;;1.75;0.20;;;13.40;99.90;;;;;;5114750;28;20476;-74
2022/07/23 02:00:42;;;;;;;1.10;0.28;;;13.40;99.90;;;;;;5114479;28;20032;-74
2022/07/23 02:03:07;;;;;;;3.15;0.40;;;13.30;99.90;;;;;;5114406;28;20023;-74
2022/07/23 02:05:33;;;;;;;0.55;0.30;;;13.30;99.90;;;;;;5113186;28;20098;-74
2022/07/23 02:07:59;;;;;;;0.43;0.10;;;13.20;99.90;;;;;;5114331;28;20507;-74
2022/07/23 02:10:26;;;;;;;2.40;0.30;;;13.30;99.90;;;;;;5114378;28;20069;-74
2022/07/23 02:12:52;;;;;;;1.60;0.32;;;13.20;99.90;;;;;;5114285;28;20030;-74
2022/07/23 02:15:17;;;;;;;0.32;0.13;;;13.20;99.90;;;;;;5113082;28;20114;-74
2022/07/23 02:17:43;;;;;;;2.03;0.38;;;13.20;99.90;;;;;;5112917;28;20089;-75
2022/07/23 02:20:10;;;;;;;0.63;0.40;;;13.10;99.90;;;;;;5112909;28;20055;-74
2022/07/23 02:22:36;;;;;;;0.82;0.10;;;13.20;99.90;;;;;;5113961;28;20023;-74
2022/07/23 02:25:06;;;;;;;0.43;0.20;;;13.20;99.90;;;;;;5114056;28;20026;-74
2022/07/23 02:27:31;;;;;;;1.10;0.10;;;13.10;99.90;;;;;;5112847;28;20037;-74
2022/07/23 02:29:57;;;;;;;1.02;0.20;;;13.10;99.90;;;;;;5113968;28;20047;-74
2022/07/23 02:32:23;;;;;;;6.32;0.73;;;13.00;99.90;;;;;;5114266;28;20020;-74
2022/07/23 02:34:49;;;;;;;0.57;0.10;;;13.00;99.90;;;;;;5112745;28;20015;-74
2022/07/23 02:37:15;;;;;;;1.02;0.45;;;13.00;99.90;;;;;;5114551;28;20020;-74
2022/07/23 02:39:40;;;;;;;2.05;0.55;;;13.00;99.90;;;;;;5113791;28;20027;-74
2022/07/23 02:42:06;;;;;;;1.30;0.22;;;13.00;99.90;;;;;;5113858;28;20028;-74
2022/07/23 02:44:32;;;;;;;1.95;0.25;;;13.00;99.90;;;;;;5113892;28;20031;-74
2022/07/23 02:46:57;;;;;;;2.72;0.17;;;12.90;99.90;;;;;;5114989;28;20026;-74
2022/07/23 02:49:23;;;;;;;3.35;0.38;;;12.90;99.90;;;;;;5114383;28;20016;-74
2022/07/23 02:51:48;;;;;;;1.50;0.30;;;12.90;99.90;;;;;;5114070;28;20527;-74
2022/07/23 02:54:14;;;;;;;0.75;0.30;;;12.90;99.90;;;;;;5114057;28;20118;-74
2022/07/23 02:56:41;;;;;;;0.47;0.17;;;12.90;99.90;;;;;;5114303;28;20534;-74
2022/07/23 02:59:08;;;;;;;1.65;0.22;;;12.90;99.90;;;;;;5113943;28;20028;-74
2022/07/23 03:01:34;;;;;;;4.25;0.40;;;12.90;99.90;;;;;;5113619;28;20361;-74
2022/07/23 03:04:00;;;;;;;1.52;0.13;;;12.80;99.90;;;;;;5113718;28;20034;-73
2022/07/23 03:06:25;;;;;;;1.60;0.10;;;12.80;99.90;;;;;;5113483;28;20031;-73
2022/07/23 03:08:51;;;;;;;0.63;0.22;;;12.90;99.90;;;;;;5112385;28;20020;-72
2022/07/23 03:11:17;;;;;;;0.70;0.20;;;12.80;99.90;;;;;;5114029;28;20016;-72
2022/07/23 03:13:42;;;;;;;0.30;0.30;;;12.80;99.90;;;;;;5113608;28;20361;-72
2022/07/23 03:16:08;;;;;;;1.08;0.20;;;12.80;99.90;;;;;;5114066;28;20027;-72
2022/07/23 03:18:33;;;;;;;0.85;0.35;;;12.80;99.90;;;;;;5113544;28;20059;-72
2022/07/23 03:21:00;;;;;;;0.32;0.22;;;12.70;99.90;;;;;;5112184;28;20034;-73
2022/07/23 03:23:25;;;;;;;0.30;0.20;;;12.70;99.90;;;;;;5113358;28;20034;-72
2022/07/23 03:25:51;;;;;;;3.40;0.28;;;12.70;99.90;;;;;;5113410;28;20111;-72
2022/07/23 03:28:18;;;;;;;5.50;0.20;;;12.80;99.90;;;;;;5113945;28;20020;-72
2022/07/23 03:30:48;;;;;;;0.80;0.45;;;12.80;99.90;;;;;;5113313;28;20031;-72
2022/07/23 03:33:16;;;;;;;1.00;0.20;;;12.90;99.90;;;;;;5113321;28;20024;-72
2022/07/23 03:35:42;;;;;;;1.17;0.73;;;12.90;99.90;;;;;;5114300;28;20019;-72
2022/07/23 03:38:07;;;;;;;0.80;0.20;;;12.80;99.90;;;;;;5116078;28;20773;-72
2022/07/23 03:40:33;;;;;;;1.58;0.22;;;12.80;99.90;;;;;;5115945;28;20015;-72
2022/07/23 03:42:58;;;;;;;0.28;0.17;;;12.80;99.90;;;;;;5115868;28;20114;-72
2022/07/23 03:45:25;;;;;;;1.15;0.10;;;12.80;99.90;;;;;;5115965;28;20016;-72
2022/07/23 03:47:51;;;;;;;7.75;0.85;;;12.80;99.90;;;;;;5115856;28;20043;-72
2022/07/23 03:50:17;;;;;;;1.30;0.40;;;12.80;99.90;;;;;;5116940;28;20008;-72
2022/07/23 03:52:42;;;;;;;2.10;0.28;;;12.80;99.90;;;;;;5115767;28;20015;-72
2022/07/23 03:55:08;;;;;;;1.17;0.10;;;12.80;99.90;;;;;;5117220;27;20023;-72
2022/07/23 03:57:34;;;;;;;0.55;0.30;;;12.80;99.90;;;;;;5117248;28;20068;-72
2022/07/23 03:59:59;;;;;;;5.57;0.25;;;12.80;99.90;;;;;;5115478;28;20363;-72
2022/07/23 04:02:25;;;;;;;0.77;0.70;;;12.90;99.90;;;;;;5116740;28;20102;-72
2022/07/23 04:04:51;;;;;;;2.22;0.40;;;12.80;99.90;;;;;;5116733;28;20019;-72
2022/07/23 04:07:17;;;;;;;1.42;0.40;;;12.80;99.90;;;;;;5116530;28;20028;-72
2022/07/23 04:09:43;;;;;;;4.97;0.95;;;12.80;99.90;;;;;;5116606;28;20103;-72
2022/07/23 04:12:09;;;;;;;3.22;0.35;;;12.80;99.90;;;;;;5116683;28;20455;-72
2022/07/23 04:14:35;;;;;;;0.57;0.20;;;12.80;99.90;;;;;;5116669;28;20023;-72
2022/07/23 04:17:01;;;;;;;0.77;0.20;;;12.90;99.90;;;;;;5116431;27;20077;-72
2022/07/23 04:19:27;;;;;;;1.35;0.52;;;12.90;99.90;;;;;;5116427;28;20035;-72
2022/07/23 04:21:53;;;;;;;1.05;0.20;;;12.90;99.90;;;;;;5116277;28;20039;-72
2022/07/23 04:24:19;;;;;;;0.73;0.43;;;12.90;99.90;;;;;;5115123;28;20020;-72
2022/07/23 04:26:45;;;;;;;1.45;0.17;;;12.90;99.90;;;;;;5116608;28;20018;-72
2022/07/23 04:29:11;;;;;;;1.67;0.47;;;12.90;99.90;;;;;;5116308;28;20024;-72
2022/07/23 04:31:36;;;;;;;3.20;0.40;;;13.50;99.90;;;;;;5116201;28;20426;-72
2022/07/23 04:34:03;;;;;;;3.15;0.80;;;13.10;99.90;;;;;;5116535;28;20031;-74
2022/07/23 04:36:28;;;;;;;0.60;0.20;;;13.10;99.90;;;;;;5116178;28;20491;-72
2022/07/23 04:38:54;;;;;;;1.27;0.60;;;13.10;99.90;;;;;;5116246;28;20016;-72
2022/07/23 04:41:20;;;;;;;1.55;0.10;;;13.20;99.90;;;;;;5116052;28;20582;-76
2022/07/23 04:43:46;;;;;;;0.68;0.13;;;13.20;99.90;;;;;;5114644;28;20119;-72
2022/07/23 04:46:12;;;;;;;1.40;0.15;;;13.20;99.90;;;;;;5116569;28;20012;-72
2022/07/23 04:48:37;;;;;;;2.22;0.25;;;13.40;99.90;;;;;;5113487;28;20012;-72
2022/07/23 04:51:04;;;;;;;0.85;0.30;;;13.40;99.90;;;;;;5115858;28;20385;-72
2022/07/23 04:53:30;;;;;;;3.78;0.47;;;13.50;99.90;;;;;;5115778;28;20397;-72
2022/07/23 04:55:56;;;;;;;2.08;0.73;;;13.60;99.90;;;;;;5114526;28;20030;-72
2022/07/23 04:58:22;;;;;;;0.10;0.10;;;13.60;99.90;;;;;;5116325;28;20051;-72
2022/07/23 05:00:48;;;;;;;1.48;0.32;;;13.70;99.90;;;;;;5115580;28;20031;-72
2022/07/23 05:03:15;;;;;;;0.95;0.35;;;13.80;99.90;;;;;;5115640;28;20032;-72
2022/07/23 05:05:41;;;;;;;0.73;0.43;;;13.90;99.90;;;;;;5114350;28;20446;-72
2022/07/23 05:08:06;;;;;;;0.30;0.15;;;13.90;99.90;;;;;;5115432;28;20023;-72
2022/07/23 05:10:32;;;;;;;2.20;0.40;;;14.00;99.90;;;;;;5115417;28;20098;-73
2022/07/23 05:12:58;;;;;;;0.88;0.55;;;14.10;99.90;;;;;;5114188;28;20016;-73
2022/07/23 05:15:24;;;;;;;2.03;0.38;;;14.20;99.90;;;;;;5114237;28;20054;-72
2022/07/23 05:17:49;;;;;;;2.88;0.43;;;14.30;99.90;;;;;;5114082;28;20024;-72
2022/07/23 05:20:15;;;;;;;4.10;0.50;;;14.40;99.90;;;;;;5115242;28;20048;-72
2022/07/23 05:22:41;;;;;;;0.50;0.20;;;14.50;99.90;;;;;;5115526;28;20055;-72
2022/07/23 05:25:07;;;;;;;2.35;0.60;;;14.60;99.90;;;;;;5113973;28;20024;-72
2022/07/23 05:27:33;;;;;;;1.95;0.50;;;14.70;99.90;;;;;;5115377;28;20453;-73
2022/07/23 05:30:00;;;;;;;0.82;0.30;;;14.80;99.90;;;;;;5115058;28;20046;-73
2022/07/23 05:32:26;;;;;;;1.65;0.40;;;15.00;99.90;;;;;;5113738;28;20028;-73
2022/07/23 05:34:51;;;;;;;1.02;0.47;;;15.10;99.90;;;;;;5115523;28;20054;-72
2022/07/23 05:37:17;;;;;;;0.65;0.20;;;15.20;99.90;;;;;;5113654;28;20081;-72
2022/07/23 05:39:43;;;;;;;2.95;0.20;;;15.30;99.90;;;;;;5114862;28;20034;-73
2022/07/23 05:42:08;;;;;;;1.38;0.20;;;15.40;99.90;;;;;;5114829;28;20031;-73
2022/07/23 05:44:35;;;;;;;0.68;0.25;;;15.50;99.90;;;;;;5114814;28;20016;-73
2022/07/23 05:47:01;;;;;;;2.70;0.20;;;15.60;99.90;;;;;;5114761;28;20027;-73
2022/07/23 05:49:26;;;;;;;0.75;0.10;;;15.70;99.90;;;;;;5114772;27;20099;-73
2022/07/23 05:51:52;;;;;;;5.30;0.77;;;15.80;99.90;;;;;;5114668;28;20058;-73
2022/07/23 05:54:18;;;;;;;0.95;0.10;;;16.00;99.90;;;;;;5115190;28;20024;-73
2022/07/23 05:56:43;;;;;;;1.17;0.22;;;16.00;99.90;;;;;;5114915;28;20027;-73
2022/07/23 05:59:09;;;;;;;1.55;0.20;;;16.10;99.90;;;;;;5114188;28;20027;-73
2022/07/23 06:01:34;;;;;;;0.93;0.10;;;16.20;99.90;;;;;;5114761;28;20026;-73
2022/07/23 06:04:00;;;;;;;1.88;0.30;;;16.40;99.90;;;;;;5114480;28;20076;-73
2022/07/23 06:06:25;;;;;;;3.22;0.20;;;16.50;99.90;;;;;;5114241;28;20111;-73
2022/07/23 06:08:51;;;;;;;3.25;0.13;;;16.60;99.90;;;;;;5114433;28;20488;-73
2022/07/23 06:11:18;;;;;;;2.08;0.20;;;16.80;99.90;;;;;;5114477;28;20068;-73
2022/07/23 06:13:43;;;;;;;1.60;0.30;;;16.90;99.90;;;;;;5114559;27;20030;-73
2022/07/23 06:16:09;;;;;;;1.75;0.10;;;17.10;99.90;;;;;;5114489;28;20084;-73
2022/07/23 06:18:35;;;;;;;2.30;0.20;;;17.20;99.90;;;;;;5114114;28;20041;-73
2022/07/23 06:21:00;;;;;;;1.55;0.35;;;17.20;99.90;;;;;;5114232;28;20070;-73
2022/07/23 06:23:26;;;;;;;2.55;0.32;;;17.20;99.90;;;;;;5114178;28;20452;-73
2022/07/23 06:25:51;;;;;;;0.50;0.00;;;17.20;99.90;;;;;;5112839;28;20392;-73
2022/07/23 06:28:17;;;;;;;0.45;0.10;;;17.20;99.90;;;;;;5114348;28;20028;-73
2022/07/23 06:30:43;;;;;;;1.10;0.25;;;17.30;99.90;;;;;;5112764;28;20024;-73
2022/07/23 06:33:08;;;;;;;0.15;0.00;;;17.50;99.90;;;;;;5114079;28;20046;-73
2022/07/23 06:35:34;;;;;;;3.00;0.00;;;17.50;99.90;;;;;;5113916;28;20384;-73
2022/07/23 06:37:59;;;;;;;0.00;0.00;;;17.60;99.90;;;;;;5114571;28;20104;-73
2022/07/23 06:40:26;;;;;;;1.35;0.00;;;17.70;99.90;;;;;;5114685;28;20027;-73
2022/07/23 06:42:51;;;;;;;1.95;0.00;;;17.80;99.90;;;;;;5114116;28;20027;-73
2022/07/23 06:45:17;;;;;;;0.63;0.00;;;18.00;99.90;;;;;;5112701;28;20026;-73
2022/07/23 06:47:43;;;;;;;1.83;0.00;;;17.90;99.90;;;;;;5113928;28;20016;-73
2022/07/23 06:50:09;;;;;;;0.32;0.00;;;18.00;99.90;;;;;;5114092;28;20537;-73
2022/07/23 06:52:35;;;;;;;1.38;0.00;;;18.10;99.90;;;;;;5113801;28;20031;-73
2022/07/23 06:55:01;;;;;;;0.40;0.00;;;18.30;99.90;;;;;;5113690;28;20023;-73
2022/07/23 06:57:26;;;;;;;1.90;0.10;;;18.30;99.90;;;;;;5112508;28;20093;-73
2022/07/23 06:59:54;;;;;;;0.55;0.00;;;18.40;99.90;;;;;;5114137;28;20125;-73
2022/07/23 07:02:19;;;;;;;0.55;0.00;;;18.30;99.90;;;;;;5112291;28;20027;-73
2022/07/23 07:04:45;;;;;;;2.28;0.00;;;18.30;99.90;;;;;;5113683;28;20019;-73
2022/07/23 07:07:12;;;;;;;4.13;0.47;;;18.30;99.90;;;;;;5110938;22;20066;-73
2022/07/23 07:09:39;;;;;;;2.15;0.43;;;18.40;99.90;;;;;;5091942;28;20024;-73
2022/07/23 07:12:04;;;;;;;1.17;0.00;;;18.60;99.90;;;;;;5095360;28;20020;-73
2022/07/23 07:14:30;;;;;;;0.30;0.00;;;18.70;99.90;;;;;;5098095;28;20491;-73
2022/07/23 07:16:56;;;;;;;1.33;0.10;;;18.70;99.90;;;;;;5097359;28;20031;-74
2022/07/23 07:19:21;;;;;;;0.20;0.00;;;18.70;99.90;;;;;;5097177;28;20430;-74
2022/07/23 07:21:48;;;;;;;0.03;0.00;;;18.70;99.90;;;;;;5097405;28;20031;-74
2022/07/23 07:24:14;;;;;;;0.63;0.00;;;18.80;99.90;;;;;;5097122;28;20023;-74
2022/07/23 07:26:39;;;;;;;0.77;0.32;;;18.90;99.90;;;;;;5097141;28;20028;-73
2022/07/23 07:29:05;;;;;;;1.65;0.05;;;18.90;99.90;;;;;;5097089;28;20106;-73
2022/07/23 07:31:31;;;;;;;0.85;0.00;;;19.10;99.90;;;;;;5097060;28;20073;-73
2022/07/23 07:33:58;;;;;;;0.73;0.00;;;19.10;99.90;;;;;;5097044;28;20028;-73
2022/07/23 07:36:23;;;;;;;3.08;0.00;;;19.30;99.90;;;;;;5097212;28;20020;-73
2022/07/23 07:38:49;;;;;;;1.65;0.00;;;19.40;99.90;;;;;;5097537;28;20384;-73
2022/07/23 07:41:22;;;;;;;2.25;0.00;;;19.40;99.90;;;;;;5096800;28;20439;-73
2022/07/23 07:43:48;;;;;;;2.40;0.00;;;19.50;99.90;;;;;;5095447;28;20032;-73
2022/07/23 07:46:14;;;;;;;0.70;0.10;;;19.40;99.90;;;;;;5097077;28;20066;-74
2022/07/23 07:48:39;;;;;;;1.20;0.00;;;19.40;99.90;;;;;;5096711;28;20028;-74
2022/07/23 07:51:05;;;;;;;0.82;0.00;;;19.40;99.90;;;;;;5096985;28;20019;-74
2022/07/23 07:53:31;;;;;;;0.30;0.00;;;19.60;99.90;;;;;;5095381;28;20024;-73
2022/07/23 07:55:56;;;;;;;1.65;0.00;;;19.70;99.90;;;;;;5095311;28;20054;-73
2022/07/23 07:58:23;;;;;;;1.33;0.00;;;19.80;99.90;;;;;;5096570;28;20024;-73
2022/07/23 08:00:49;;;;;;;1.55;0.00;;;19.70;99.90;;;;;;5095144;28;20476;-73
2022/07/23 08:03:14;;;;;;;2.40;0.17;;;19.80;99.90;;;;;;5095402;28;20077;-73
2022/07/23 08:05:40;;;;;;;0.75;0.00;;;20.00;99.90;;;;;;5096448;28;20031;-73
2022/07/23 08:08:06;;;;;;;0.63;0.00;;;20.10;99.90;;;;;;5095136;28;20024;-73
2022/07/23 08:10:31;;;;;;;1.25;0.00;;;20.10;99.90;;;;;;5096481;28;20101;-73
2022/07/23 08:12:58;;;;;;;0.05;0.00;;;20.20;99.90;;;;;;5096329;28;20066;-74
2022/07/23 08:15:28;;;;;;;0.57;0.00;;;20.20;99.90;;;;;;5096255;28;20389;-73
2022/07/23 08:17:54;;;;;;;1.35;0.00;;;20.20;99.90;;;;;;5094960;28;20119;-74
2022/07/23 08:20:21;;;;;;;1.40;0.10;;;20.30;99.90;;;;;;5094763;28;20077;-73
2022/07/23 08:23:03;;;;;;;1.00;0.10;;;20.20;99.90;;;;;;5096319;28;20028;-73
2022/07/23 08:25:31;;;;;;;0.00;0.00;;;20.20;99.90;;;;;;5096044;28;20104;-73
2022/07/23 08:27:58;;;;;;;1.30;0.00;;;20.30;99.90;;;;;;5095826;28;20495;-73
2022/07/23 08:30:24;;;;;;;3.03;0.00;;;20.40;99.90;;;;;;5095863;28;20052;-73
2022/07/23 08:32:53;;;;;;;0.60;0.00;;;20.60;99.90;;;;;;5095831;28;20032;-73
2022/07/23 08:35:32;;;;;;;2.38;0.52;;;20.60;99.90;;;;;;5094519;28;20034;-73
2022/07/23 08:37:58;;;;;;;0.65;0.30;;;20.70;99.90;;;;;;5096164;28;20024;-73
2022/07/23 08:40:26;;;;;;;0.28;0.00;;;20.50;99.90;;;;;;5095679;28;20024;-73
2022/07/23 08:42:52;;;;;;;2.17;0.30;;;20.70;99.90;;;;;;5095625;28;20109;-73
2022/07/23 08:45:20;;;;;;;1.85;0.00;;;20.80;99.90;;;;;;5095569;28;20024;-73
2022/07/23 08:47:53;;;;;;;1.58;0.00;;;20.80;99.80;;;;;;5095843;28;20044;-73
2022/07/23 08:50:19;;;;;;;0.47;0.10;;;20.80;99.90;;;;;;5095508;28;20024;-73
2022/07/23 08:52:45;;;;;;;2.45;0.10;;;20.80;99.90;;;;;;5095757;28;20027;-73
2022/07/23 08:55:12;;;;;;;0.00;0.00;;;20.90;99.90;;;;;;5095992;28;20028;-73
2022/07/23 08:57:37;;;;;;;0.10;0.10;;;21.10;99.90;;;;;;5095397;28;20077;-73
2022/07/23 09:00:05;;;;;;;2.30;0.05;;;21.20;99.90;;;;;;5093990;28;20032;-73
2022/07/23 09:02:31;;;;;;;0.68;0.00;;;21.20;99.80;;;;;;5094030;28;20023;-73
2022/07/23 09:04:57;;;;;;;0.93;0.00;;;21.40;99.90;;;;;;5095309;28;20028;-73
2022/07/23 09:07:22;;;;;;;0.32;0.10;;;21.70;99.30;;;;;;5095196;28;20028;-73
2022/07/23 09:10:08;;;;;;;0.05;0.00;;;21.50;99.90;;;;;;5095163;28;20012;-73
2022/07/23 09:12:34;;;;;;;0.55;0.00;;;21.70;99.90;;;;;;5095088;28;20058;-73
2022/07/23 09:15:07;;;;;;;0.80;0.00;;;21.60;97.10;;;;;;5093798;28;20052;-73
2022/07/23 09:17:41;;;;;;;0.10;0.00;;;21.70;99.50;;;;;;5095059;28;20020;-73
2022/07/23 09:20:12;;;;;;;1.70;0.00;;;21.70;96.90;;;;;;5094890;28;20111;-73
2022/07/23 09:22:38;;;;;;;1.20;0.00;;;21.50;96.40;;;;;;5094950;28;20024;-73
2022/07/23 09:25:10;;;;;;;1.83;0.00;;;21.60;97.40;;;;;;5094830;28;20021;-73
2022/07/23 09:27:57;;;;;;;0.00;0.00;;;21.70;96.60;;;;;;5095105;28;20020;-73
2022/07/23 09:30:24;;;;;;;0.43;0.00;;;21.80;96.60;;;;;;5094708;28;20016;-73
2022/07/23 09:33:13;;;;;;;0.20;0.00;;;21.80;97.70;;;;;;5094402;28;20024;-73
2022/07/23 09:35:45;;;;;;;;;;;21.90;95.90;;;;;;5093769;28;20105;-73
2022/07/23 09:38:10;;;;;;;0.10;0.00;;;21.90;95.40;;;;;;5094942;28;20318;-73
2022/07/23 09:40:36;;;;;;;1.27;0.20;;;21.90;95.80;;;;;;5094585;28;20028;-73
2022/07/23 09:43:01;;;;;;;0.00;0.00;;;22.00;93.50;;;;;;5094738;28;20021;-73
2022/07/23 09:45:27;;;;;;;1.17;0.00;;;22.00;95.60;;;;;;5094504;28;20073;-73
2022/07/23 09:48:11;;;;;;;0.65;0.13;;;22.20;92.70;;;;;;5094441;28;20048;-73
2022/07/23 09:50:36;;;;;;;0.00;0.00;;;22.00;91.30;;;;;;5094433;28;20016;-73
2022/07/23 09:53:02;;;;;;;0.00;0.00;;;22.10;92.60;;;;;;5094335;28;20107;-73
2022/07/23 09:55:41;;;;;;;0.20;0.00;;;22.20;91.40;;;;;;5094231;28;20469;-73
2022/07/23 09:58:12;;;;;;;0.45;0.00;;;22.40;92.80;;;;;;5093045;28;20024;-73
2022/07/23 10:00:38;;;;;;;0.00;0.00;;;22.70;93.00;;;;;;5094509;28;20040;-74
2022/07/23 10:03:06;;;;;;;0.00;0.00;;;23.00;93.10;;;;;;5094048;28;20035;-73
2022/07/23 10:05:32;;;;;;;0.77;0.00;;;23.00;90.40;;;;;;5094234;28;20028;-73
2022/07/23 10:08:01;;;;;;;0.80;0.25;;;23.10;93.20;;;;;;5093892;28;20082;-73
2022/07/23 10:10:27;;;;;;;0.43;0.00;;;23.30;92.10;;;;;;5094028;28;20016;-74
2022/07/23 10:15:24;;;;;;;0.08;0.00;;;23.40;87.10;;;;;;5094311;28;20436;-74
2022/07/23 10:17:50;;;;;;;0.63;0.00;;;23.40;86.70;;;;;;5094200;28;20023;-74
2022/07/23 10:20:16;;;;;;;0.70;0.00;;;23.20;83.00;;;;;;5093856;28;20032;-74
2022/07/23 10:23:08;;;;;;;0.00;0.00;;;23.20;84.90;;;;;;5093785;28;20460;-74
2022/07/23 10:26:00;;;;;;;0.10;0.00;;;23.30;84.80;;;;;;5094086;28;20024;-74
2022/07/23 10:28:49;;;;;;;0.00;0.00;;;23.50;85.30;;;;;;5093787;28;20020;-74
2022/07/23 10:31:50;;;;;;;0.00;0.00;;;23.90;87.00;;;;;;5092388;28;20052;-74
2022/07/23 10:34:29;;;;;;;0.47;0.00;;;24.10;79.70;;;;;;5093569;28;20020;-74
2022/07/23 10:37:24;;;;;;;0.05;0.00;;;24.00;74.50;;;;;;5093869;28;20020;-74
2022/07/23 10:40:09;;;;;;;0.70;0.00;;;24.10;79.90;;;;;;5093839;28;20020;-74
2022/07/23 10:42:36;;;;;;;0.85;0.00;;;24.10;81.20;;;;;;5093588;28;20035;-74
2022/07/23 10:45:24;;;;;;;0.05;0.00;;;24.30;84.50;;;;;;5092298;28;20016;-74
2022/07/23 10:47:52;;;;;;;;;;;24.30;78.80;;;;;;5094013;28;20092;-74
2022/07/23 10:50:23;;;;;;;0.47;0.00;;;24.40;80.50;;;;;;5093475;28;19911;-74
2022/07/23 10:53:12;;;;;;;1.27;0.00;;;24.50;79.50;;;;;;5093524;28;20037;-74
2022/07/23 10:55:37;;;;;;;0.82;0.00;;;24.30;76.00;;;;;;5092185;28;20402;-74
2022/07/23 10:58:04;;;;;;;2.85;0.00;;;24.50;83.50;;;;;;5093712;28;20023;-74
2022/07/23 11:00:32;;;;;;;1.30;0.00;;;24.60;80.60;;;;;;5092030;28;20522;-74
2022/07/23 11:03:06;;;;;;;1.67;0.00;;;24.60;80.60;;;;;;5093299;28;20024;-74
2022/07/23 11:05:45;;;;;;;0.00;0.00;;;24.80;81.00;;;;;;5092118;28;20055;-74
2022/07/23 11:08:16;;;;;;;3.13;0.10;;;25.10;81.70;;;;;;5091943;28;20480;-74
2022/07/23 11:10:44;;;;;;;0.75;0.00;;;25.30;80.20;;;;;;5093175;28;20546;-74
2022/07/23 11:13:22;;;;;;;0.25;0.00;;;25.50;80.10;;;;;;5093210;28;20024;-75
2022/07/23 11:16:08;;;;;;;1.70;0.00;;;25.50;72.60;;;;;;5093601;28;20388;-75
2022/07/23 11:18:39;;;;;;;0.10;0.00;;;25.30;74.70;;;;;;5093470;28;20028;-74
2022/07/23 11:21:23;;;;;;;0.73;0.00;;;25.50;76.70;;;;;;5093099;28;20024;-74
2022/07/23 11:24:09;;;;;;;0.50;0.00;;;25.70;76.70;;;;;;5093347;28;20028;-74
2022/07/23 11:26:43;;;;;;;0.75;0.00;;;25.80;73.10;;;;;;5093123;28;20027;-74
2022/07/23 11:29:27;;;;;;;0.00;0.00;;;25.80;70.00;;;;;;5091650;28;20028;-74
2022/07/23 11:32:05;;;;;;;1.92;0.00;;;26.10;70.40;;;;;;5091801;28;20020;-74
2022/07/23 11:34:41;;;;;;;0.10;0.00;;;26.20;73.30;;;;;;5093317;28;20459;-74
2022/07/23 11:37:11;;;;;;;1.60;0.00;;;26.40;72.20;;;;;;5093104;28;20060;-74
2022/07/23 11:39:38;;;;;;;0.15;0.00;;;26.40;65.70;;;;;;5093564;28;20107;-74
2022/07/23 11:42:06;;;;;;;1.48;0.00;;;26.30;64.30;;;;;;5089570;28;20048;-74
2022/07/23 11:44:34;;;;;;;0.03;0.00;;;26.50;70.10;;;;;;5072759;28;20468;-74
2022/07/23 11:47:07;;;;;;;0.03;0.00;;;26.70;65.90;;;;;;5072671;28;20097;-74
2022/07/23 11:49:33;;;;;;;0.00;0.00;;;26.80;64.20;;;;;;5072758;28;20074;-74
2022/07/23 11:52:13;;;;;;;0.00;0.00;;;27.10;70.60;;;;;;5072675;28;20035;-74
2022/07/23 11:54:54;;;;;;;0.65;0.00;;;27.30;65.10;;;;;;5072603;28;20020;-75
2022/07/23 11:57:24;;;;;;;0.98;0.13;;;27.50;64.00;;;;;;5074421;28;20111;-75
2022/07/23 11:59:54;;;;;;;0.10;0.10;;;27.70;63.10;;;;;;5076707;28;20319;-74
2022/07/23 12:02:21;;;;;;;2.53;0.10;;;27.70;65.20;;;;;;5076669;28;20028;-74
2022/07/23 12:04:49;;;;;;;0.50;0.00;;;28.00;65.70;;;;;;5074949;28;20070;-74
2022/07/23 12:07:34;;;;;;;0.40;0.00;;;28.00;62.60;;;;;;5074743;28;20414;-74
2022/07/23 12:10:04;;;;;;;0.20;0.00;;;28.10;61.30;;;;;;5074809;28;20024;-74
2022/07/23 12:12:42;;;;;;;0.00;0.00;;;28.50;62.10;;;;;;5076393;28;20027;-74
2022/07/23 12:15:09;;;;;;;0.33;0.00;;;28.50;62.60;;;;;;5076134;28;20035;-74
2022/07/23 12:17:37;;;;;;;1.02;0.28;;;28.70;61.60;;;;;;5076098;28;20081;-74
2022/07/23 12:20:06;;;;;;;0.32;0.00;;;28.80;60.40;;;;;;5075834;28;20070;-74
2022/07/23 12:22:43;;;;;;;0.45;0.00;;;28.70;59.40;;;;;;5075731;28;20032;-74
2022/07/23 12:25:17;;;;;;;0.00;0.00;;;28.80;61.60;;;;;;5076057;28;20028;-75
2022/07/23 12:27:44;;;;;;;1.17;0.20;;;28.90;60.80;;;;;;5075760;28;20016;-74
2022/07/23 12:30:24;;;;;;;1.08;0.03;;;28.70;59.80;;;;;;5074328;28;20021;-74
2022/07/23 12:32:53;;;;;;;0.90;0.00;;;28.00;58.30;;;;;;5075674;28;20021;-74
2022/07/23 12:35:20;;;;;;;1.02;0.10;;;28.10;60.20;;;;;;5075767;28;20029;-74
2022/07/23 12:37:47;;;;;;;0.63;0.00;;;28.40;60.30;;;;;;5075642;28;20493;-74
2022/07/23 12:40:28;;;;;;;0.22;0.00;;;28.50;59.90;;;;;;5074370;28;20024;-75
2022/07/23 12:43:00;;;;;;;1.45;0.13;;;28.50;58.20;;;;;;5075936;28;20064;-75
2022/07/23 12:45:28;;;;;;;1.45;0.10;;;28.70;63.60;;;;;;5075520;28;20020;-75
2022/07/23 12:48:05;;;;;;;0.00;0.00;;;28.80;59.00;;;;;;5075447;28;20025;-75
2022/07/23 12:50:36;;;;;;;0.10;0.00;;;29.00;61.30;;;;;;5075334;28;20104;-75
2022/07/23 12:53:37;;;;;;;0.47;0.10;;;29.60;58.40;;;;;;5075290;28;20508;-75
2022/07/23 12:56:09;;;;;;;1.88;0.00;;;30.00;57.40;;;;;;5075520;28;20036;-76